Warnow Chief — 5BVL2 — position and weather

sailwx.info

Track history (hours):
 
Tides and Currents Weather Stations Pressure Air Temp Water Temp Dewpoint Dewpoint Depression Visibility Wind Speed Wind Dir Waves Ship Positions

Warnow Chief

Last reported at 2018-Aug-12 09:33 UTC. Time now 2018-Aug-14 06:59 UTC.
Position N 01°22' E 104°27'.

Length 180 m; draft 6.9 m.

Type: Ship (hazmat cat B). MMSI: 209138000.

Date/timePositionNaut miles runAvg speedWind from/ knotsBaromVisibWave heightAir tempDewpointWater temp
2018-Aug-12 09:33N 01°22' E 104°27'1014.0
2018-Aug-12 08:51N 01°17' E 104°18'714.7
2018-Aug-12 08:22N 01°16' E 104°11'614.7
2018-Aug-12 07:58N 01°15' E 104°05'714.8
2018-Aug-12 07:29N 01°14' E 103°58'714.6
2018-Aug-12 06:59N 01°11' E 103°52'510.0
2018-Aug-12 06:29N 01°14' E 103°47'4 8.7
2018-Aug-12 06:00N 01°17' E 103°45'0 0.9
2018-Aug-12 05:28N 01°17' E 103°46'0 0.0
2018-Aug-12 04:56N 01°17' E 103°46'0 0.0
2018-Aug-12 04:20N 01°17' E 103°46'0 0.0
2018-Aug-12 03:56N 01°17' E 103°46'0 0.0
2018-Aug-12 03:29N 01°17' E 103°46'0 0.0
2018-Aug-12 02:58N 01°17' E 103°46'0 0.0
2018-Aug-12 02:28N 01°17' E 103°46'0 0.0
2018-Aug-12 01:59N 01°17' E 103°46'0 0.0
2018-Aug-12 01:29N 01°17' E 103°46'0 0.0
2018-Aug-12 00:53N 01°17' E 103°46'0 0.0
2018-Aug-12 00:26N 01°17' E 103°46'0 0.0
2018-Aug-11 23:56N 01°17' E 103°46'0 0.0
2018-Aug-11 23:29N 01°17' E 103°46'0 0.4
2018-Aug-11 22:59N 01°17' E 103°46'2 4.0
2018-Aug-11 22:30N 01°15' E 103°46'1 1.8
2018-Aug-11 21:56N 01°16' E 103°47'0 0.0
2018-Aug-11 21:20N 01°16' E 103°47'0 0.0
2018-Aug-11 20:52N 01°16' E 103°47'0 0.0
2018-Aug-11 20:28N 01°16' E 103°47'0 0.0
2018-Aug-11 19:55N 01°16' E 103°47'0 0.0
2018-Aug-11 19:28N 01°16' E 103°47'0 0.0
2018-Aug-11 18:59N 01°16' E 103°47'0 0.0
2018-Aug-11 18:20N 01°16' E 103°47'0 0.0
2018-Aug-11 17:58N 01°16' E 103°47'0 0.0
2018-Aug-11 17:28N 01°16' E 103°47'0 0.0
2018-Aug-11 16:55N 01°16' E 103°47'0 0.0
2018-Aug-11 16:28N 01°16' E 103°47'0 0.0
2018-Aug-11 15:59N 01°16' E 103°47'0 0.0
2018-Aug-11 15:26N 01°16' E 103°47'0 0.0
2018-Aug-11 15:00N 01°16' E 103°47'0 0.0
2018-Aug-11 14:28N 01°16' E 103°47'0 0.0
2018-Aug-11 13:58N 01°16' E 103°47'0 0.0
2018-Aug-11 13:11N 01°16' E 103°47'0 0.0
2018-Aug-11 12:57N 01°16' E 103°47'0 0.0
2018-Aug-11 12:29N 01°16' E 103°47'0 0.0
2018-Aug-11 12:00N 01°16' E 103°47'0 0.0
2018-Aug-11 11:26N 01°16' E 103°47'0 0.0
2018-Aug-11 10:56N 01°16' E 103°47'0 0.0
2018-Aug-11 10:23N 01°16' E 103°47'0 0.0
2018-Aug-11 10:00N 01°16' E 103°47'0 0.5
2018-Aug-11 09:30N 01°15' E 103°47'3 5.9
2018-Aug-11 08:58N 01°13' E 103°49'511.7
2018-Aug-11 08:30N 01°14' E 103°54'5 9.2
2018-Aug-11 07:58N 01°15' E 103°59'510.6
2018-Aug-11 07:28N 01°16' E 104°04'510.6
2018-Aug-11 07:00N 01°17' E 104°09'610.5
2018-Aug-11 06:24N 01°18' E 104°15'510.3
2018-Aug-11 05:56N 01°19' E 104°20'510.3
2018-Aug-11 05:28N 01°22' E 104°24'511.0
2018-Aug-11 04:58N 01°24' E 104°29'  
2018-Aug-08 19:43S 06°52' E 112°45'412.4
2018-Aug-08 19:24S 06°55' E 112°43'614.3
2018-Aug-08 18:59S 07°01' E 112°41'714.2
2018-Aug-08 18:29S 07°08' E 112°40'5 5.0
2018-Aug-08 17:31S 07°12' E 112°42'0 0.0
2018-Aug-08 17:22S 07°12' E 112°42'0 0.0
2018-Aug-08 16:39S 07°12' E 112°42'0 0.0
2018-Aug-08 16:30S 07°12' E 112°42'0 0.0
2018-Aug-08 15:09S 07°12' E 112°42'0 0.0
2018-Aug-08 10:21S 07°12' E 112°42'0 0.0
2018-Aug-08 09:15S 07°12' E 112°42'0 0.0
2018-Aug-08 07:54S 07°12' E 112°42'0 0.0
2018-Aug-08 07:30S 07°12' E 112°42'0 0.0
2018-Aug-08 06:48S 07°12' E 112°42'0 0.0
2018-Aug-08 04:57S 07°12' E 112°42'0 0.0
2018-Aug-08 04:30S 07°12' E 112°42'0 0.0
2018-Aug-08 03:33S 07°12' E 112°42'0 0.0
2018-Aug-08 03:21S 07°12' E 112°42'0 0.0
2018-Aug-08 02:33S 07°12' E 112°42'0 0.0
2018-Aug-08 02:27S 07°12' E 112°42'0 0.0
2018-Aug-08 01:51S 07°12' E 112°42'0 0.2
2018-Aug-08 01:28S 07°12' E 112°42'2 4.5
2018-Aug-08 01:00S 07°10' E 112°41'4 8.9
2018-Aug-08 00:29S 07°06' E 112°39'913.0
2018-Aug-07 23:49S 06°58' E 112°43'612.8
2018-Aug-07 23:23S 06°52' E 112°44'  
2018-Aug-05 17:17N 01°23' E 104°33'1516.4
2018-Aug-05 16:20N 01°17' E 104°19'719.3
2018-Aug-05 15:57N 01°15' E 104°12'919.3
2018-Aug-05 15:30N 01°14' E 104°03'1019.0
2018-Aug-05 14:59N 01°12' E 103°53'8 7.7
2018-Aug-05 14:01N 01°16' E 103°47'0 0.4
2018-Aug-05 13:30N 01°16' E 103°47'0 0.0
2018-Aug-05 13:00N 01°16' E 103°47'0 0.0
2018-Aug-05 12:30N 01°16' E 103°47'0 0.0
2018-Aug-05 11:59N 01°16' E 103°47'0 0.0
2018-Aug-05 11:30N 01°16' E 103°47'0 0.0
2018-Aug-05 10:59N 01°16' E 103°47'0 0.0
2018-Aug-05 10:30N 01°16' E 103°47'0 0.0
2018-Aug-05 09:54N 01°16' E 103°47'0 0.0
2018-Aug-05 09:26N 01°16' E 103°47'0 0.0
2018-Aug-05 09:01N 01°16' E 103°47'0 0.0
2018-Aug-05 08:00N 01°16' E 103°47'0 0.0
2018-Aug-05 07:30N 01°16' E 103°47'0 0.0
2018-Aug-05 07:00N 01°16' E 103°47'0 0.4
2018-Aug-05 06:31N 01°16' E 103°47'2 4.4
2018-Aug-05 06:00N 01°17' E 103°45'1 2.3
2018-Aug-05 05:30N 01°17' E 103°46'0 0.0
2018-Aug-05 04:58N 01°17' E 103°46'0 0.0
2018-Aug-05 04:30N 01°17' E 103°46'0 0.0
2018-Aug-05 03:46N 01°17' E 103°46'0 0.0
2018-Aug-05 03:10N 01°17' E 103°46'0 0.0
2018-Aug-05 02:43N 01°17' E 103°46'0 0.0
2018-Aug-05 02:22N 01°17' E 103°46'0 0.0
2018-Aug-05 01:52N 01°17' E 103°46'0 0.0
2018-Aug-05 01:25N 01°17' E 103°46'0 0.0
2018-Aug-05 00:28N 01°17' E 103°46'0 0.0
2018-Aug-04 23:55N 01°17' E 103°46'0 0.0
2018-Aug-04 23:28N 01°17' E 103°46'0 0.0
2018-Aug-04 23:00N 01°17' E 103°46'0 0.0
2018-Aug-04 22:30N 01°17' E 103°46'0 0.0
2018-Aug-04 21:55N 01°17' E 103°46'0 0.0
2018-Aug-04 21:22N 01°17' E 103°46'0 0.0
2018-Aug-04 20:55N 01°17' E 103°46'0 0.0
2018-Aug-04 20:19N 01°17' E 103°46'0 0.0
2018-Aug-04 19:49N 01°17' E 103°46'0 0.0
2018-Aug-04 19:24N 01°17' E 103°46'0 0.0
2018-Aug-04 18:51N 01°17' E 103°46'0 0.0
2018-Aug-04 17:57N 01°17' E 103°46'0 0.0
2018-Aug-04 17:13N 01°17' E 103°46'0 0.0
2018-Aug-04 16:55N 01°17' E 103°46'0 0.0
2018-Aug-04 16:28N 01°17' E 103°46'0 0.0
2018-Aug-04 15:55N 01°17' E 103°46'0 0.0
2018-Aug-04 15:25N 01°17' E 103°46'0 0.0
2018-Aug-04 14:55N 01°17' E 103°46'0 0.0
2018-Aug-04 14:27N 01°17' E 103°46'0 0.0
2018-Aug-04 13:46N 01°17' E 103°46'0 0.0
2018-Aug-04 13:28N 01°17' E 103°46'0 0.0
2018-Aug-04 12:55N 01°17' E 103°46'0 0.0
2018-Aug-04 12:28N 01°17' E 103°46'0 0.0
2018-Aug-04 11:55N 01°17' E 103°46'0 0.0
2018-Aug-04 11:07N 01°17' E 103°46'0 0.0
2018-Aug-04 10:25N 01°17' E 103°46'0 0.0
2018-Aug-04 09:55N 01°17' E 103°46'0 0.2
2018-Aug-04 09:31N 01°17' E 103°46'1 2.7
2018-Aug-04 09:00N 01°16' E 103°46'612.8
2018-Aug-04 08:30N 01°13' E 103°51'5 8.7
2018-Aug-04 07:58N 01°14' E 103°56'510.4
2018-Aug-04 07:29N 01°16' E 104°00'713.7
2018-Aug-04 06:58N 01°17' E 104°07'713.8
2018-Aug-04 06:30N 01°18' E 104°14'713.6
2018-Aug-04 05:57N 01°20' E 104°21'  
Track history (hours):
 
Tides and Currents Weather Stations Pressure Air Temp Water Temp Dewpoint Dewpoint Depression Visibility Wind Speed Wind Dir Waves Ship Positions

Warnow Chief

Last reported at 2018-Aug-12 09:33 UTC. Time now 2018-Aug-14 06:59 UTC.
Position N 01°22' E 104°27'.

Length 180 m; draft 6.9 m.

Type: Ship (hazmat cat B). MMSI: 209138000.

Date/timePositionNaut miles runAvg speedWind from/ knotsBaromVisibWave heightAir tempDewpointWater temp
2018-Aug-12 09:33N 01°22' E 104°27'1014.0
2018-Aug-12 08:51N 01°17' E 104°18'714.7
2018-Aug-12 08:22N 01°16' E 104°11'614.7
2018-Aug-12 07:58N 01°15' E 104°05'714.8
2018-Aug-12 07:29N 01°14' E 103°58'714.6
2018-Aug-12 06:59N 01°11' E 103°52'510.0
2018-Aug-12 06:29N 01°14' E 103°47'4 8.7
2018-Aug-12 06:00N 01°17' E 103°45'0 0.9
2018-Aug-12 05:28N 01°17' E 103°46'0 0.0
2018-Aug-12 04:56N 01°17' E 103°46'0 0.0
2018-Aug-12 04:20N 01°17' E 103°46'0 0.0
2018-Aug-12 03:56N 01°17' E 103°46'0 0.0
2018-Aug-12 03:29N 01°17' E 103°46'0 0.0
2018-Aug-12 02:58N 01°17' E 103°46'0 0.0
2018-Aug-12 02:28N 01°17' E 103°46'0 0.0
2018-Aug-12 01:59N 01°17' E 103°46'0 0.0
2018-Aug-12 01:29N 01°17' E 103°46'0 0.0
2018-Aug-12 00:53N 01°17' E 103°46'0 0.0
2018-Aug-12 00:26N 01°17' E 103°46'0 0.0
2018-Aug-11 23:56N 01°17' E 103°46'0 0.0
2018-Aug-11 23:29N 01°17' E 103°46'0 0.4
2018-Aug-11 22:59N 01°17' E 103°46'2 4.0
2018-Aug-11 22:30N 01°15' E 103°46'1 1.8
2018-Aug-11 21:56N 01°16' E 103°47'0 0.0
2018-Aug-11 21:20N 01°16' E 103°47'0 0.0
2018-Aug-11 20:52N 01°16' E 103°47'0 0.0
2018-Aug-11 20:28N 01°16' E 103°47'0 0.0
2018-Aug-11 19:55N 01°16' E 103°47'0 0.0
2018-Aug-11 19:28N 01°16' E 103°47'0 0.0
2018-Aug-11 18:59N 01°16' E 103°47'0 0.0
2018-Aug-11 18:20N 01°16' E 103°47'0 0.0
2018-Aug-11 17:58N 01°16' E 103°47'0 0.0
2018-Aug-11 17:28N 01°16' E 103°47'0 0.0
2018-Aug-11 16:55N 01°16' E 103°47'0 0.0
2018-Aug-11 16:28N 01°16' E 103°47'0 0.0
2018-Aug-11 15:59N 01°16' E 103°47'0 0.0
2018-Aug-11 15:26N 01°16' E 103°47'0 0.0
2018-Aug-11 15:00N 01°16' E 103°47'0 0.0
2018-Aug-11 14:28N 01°16' E 103°47'0 0.0
2018-Aug-11 13:58N 01°16' E 103°47'0 0.0
2018-Aug-11 13:11N 01°16' E 103°47'0 0.0
2018-Aug-11 12:57N 01°16' E 103°47'0 0.0
2018-Aug-11 12:29N 01°16' E 103°47'0 0.0
2018-Aug-11 12:00N 01°16' E 103°47'0 0.0
2018-Aug-11 11:26N 01°16' E 103°47'0 0.0
2018-Aug-11 10:56N 01°16' E 103°47'0 0.0
2018-Aug-11 10:23N 01°16' E 103°47'0 0.0
2018-Aug-11 10:00N 01°16' E 103°47'0 0.5
2018-Aug-11 09:30N 01°15' E 103°47'3 5.9
2018-Aug-11 08:58N 01°13' E 103°49'511.7
2018-Aug-11 08:30N 01°14' E 103°54'5 9.2
2018-Aug-11 07:58N 01°15' E 103°59'510.6
2018-Aug-11 07:28N 01°16' E 104°04'510.6
2018-Aug-11 07:00N 01°17' E 104°09'610.5
2018-Aug-11 06:24N 01°18' E 104°15'510.3
2018-Aug-11 05:56N 01°19' E 104°20'510.3
2018-Aug-11 05:28N 01°22' E 104°24'511.0
2018-Aug-11 04:58N 01°24' E 104°29'  
2018-Aug-08 19:43S 06°52' E 112°45'412.4
2018-Aug-08 19:24S 06°55' E 112°43'614.3
2018-Aug-08 18:59S 07°01' E 112°41'714.2
2018-Aug-08 18:29S 07°08' E 112°40'5 5.0
2018-Aug-08 17:31S 07°12' E 112°42'0 0.0
2018-Aug-08 17:22S 07°12' E 112°42'0 0.0
2018-Aug-08 16:39S 07°12' E 112°42'0 0.0
2018-Aug-08 16:30S 07°12' E 112°42'0 0.0
2018-Aug-08 15:09S 07°12' E 112°42'0 0.0
2018-Aug-08 10:21S 07°12' E 112°42'0 0.0
2018-Aug-08 09:15S 07°12' E 112°42'0 0.0
2018-Aug-08 07:54S 07°12' E 112°42'0 0.0
2018-Aug-08 07:30S 07°12' E 112°42'0 0.0
2018-Aug-08 06:48S 07°12' E 112°42'0 0.0
2018-Aug-08 04:57S 07°12' E 112°42'0 0.0
2018-Aug-08 04:30S 07°12' E 112°42'0 0.0
2018-Aug-08 03:33S 07°12' E 112°42'0 0.0
2018-Aug-08 03:21S 07°12' E 112°42'0 0.0
2018-Aug-08 02:33S 07°12' E 112°42'0 0.0
2018-Aug-08 02:27S 07°12' E 112°42'0 0.0
2018-Aug-08 01:51S 07°12' E 112°42'0 0.2
2018-Aug-08 01:28S 07°12' E 112°42'2 4.5
2018-Aug-08 01:00S 07°10' E 112°41'4 8.9
2018-Aug-08 00:29S 07°06' E 112°39'913.0
2018-Aug-07 23:49S 06°58' E 112°43'612.8
2018-Aug-07 23:23S 06°52' E 112°44'  
2018-Aug-05 17:17N 01°23' E 104°33'1516.4
2018-Aug-05 16:20N 01°17' E 104°19'719.3
2018-Aug-05 15:57N 01°15' E 104°12'919.3
2018-Aug-05 15:30N 01°14' E 104°03'1019.0
2018-Aug-05 14:59N 01°12' E 103°53'8 7.7
2018-Aug-05 14:01N 01°16' E 103°47'0 0.4
2018-Aug-05 13:30N 01°16' E 103°47'0 0.0
2018-Aug-05 13:00N 01°16' E 103°47'0 0.0
2018-Aug-05 12:30N 01°16' E 103°47'0 0.0
2018-Aug-05 11:59N 01°16' E 103°47'0 0.0
2018-Aug-05 11:30N 01°16' E 103°47'0 0.0
2018-Aug-05 10:59N 01°16' E 103°47'0 0.0
2018-Aug-05 10:30N 01°16' E 103°47'0 0.0
2018-Aug-05 09:54N 01°16' E 103°47'0 0.0
2018-Aug-05 09:26N 01°16' E 103°47'0 0.0
2018-Aug-05 09:01N 01°16' E 103°47'0 0.0
2018-Aug-05 08:00N 01°16' E 103°47'0 0.0
2018-Aug-05 07:30N 01°16' E 103°47'0 0.0
2018-Aug-05 07:00N 01°16' E 103°47'0 0.4
2018-Aug-05 06:31N 01°16' E 103°47'2 4.4
2018-Aug-05 06:00N 01°17' E 103°45'1 2.3
2018-Aug-05 05:30N 01°17' E 103°46'0 0.0
2018-Aug-05 04:58N 01°17' E 103°46'0 0.0
2018-Aug-05 04:30N 01°17' E 103°46'0 0.0
2018-Aug-05 03:46N 01°17' E 103°46'0 0.0
2018-Aug-05 03:10N 01°17' E 103°46'0 0.0
2018-Aug-05 02:43N 01°17' E 103°46'0 0.0
2018-Aug-05 02:22N 01°17' E 103°46'0 0.0
2018-Aug-05 01:52N 01°17' E 103°46'0 0.0
2018-Aug-05 01:25N 01°17' E 103°46'0 0.0
2018-Aug-05 00:28N 01°17' E 103°46'0 0.0
2018-Aug-04 23:55N 01°17' E 103°46'0 0.0
2018-Aug-04 23:28N 01°17' E 103°46'0 0.0
2018-Aug-04 23:00N 01°17' E 103°46'0 0.0
2018-Aug-04 22:30N 01°17' E 103°46'0 0.0
2018-Aug-04 21:55N 01°17' E 103°46'0 0.0
2018-Aug-04 21:22N 01°17' E 103°46'0 0.0
2018-Aug-04 20:55N 01°17' E 103°46'0 0.0
2018-Aug-04 20:19N 01°17' E 103°46'0 0.0
2018-Aug-04 19:49N 01°17' E 103°46'0 0.0
2018-Aug-04 19:24N 01°17' E 103°46'0 0.0
2018-Aug-04 18:51N 01°17' E 103°46'0 0.0
2018-Aug-04 17:57N 01°17' E 103°46'0 0.0
2018-Aug-04 17:13N 01°17' E 103°46'0 0.0
2018-Aug-04 16:55N 01°17' E 103°46'0 0.0
2018-Aug-04 16:28N 01°17' E 103°46'0 0.0
2018-Aug-04 15:55N 01°17' E 103°46'0 0.0
2018-Aug-04 15:25N 01°17' E 103°46'0 0.0
2018-Aug-04 14:55N 01°17' E 103°46'0 0.0
2018-Aug-04 14:27N 01°17' E 103°46'0 0.0
2018-Aug-04 13:46N 01°17' E 103°46'0 0.0
2018-Aug-04 13:28N 01°17' E 103°46'0 0.0
2018-Aug-04 12:55N 01°17' E 103°46'0 0.0
2018-Aug-04 12:28N 01°17' E 103°46'0 0.0
2018-Aug-04 11:55N 01°17' E 103°46'0 0.0
2018-Aug-04 11:07N 01°17' E 103°46'0 0.0
2018-Aug-04 10:25N 01°17' E 103°46'0 0.0
2018-Aug-04 09:55N 01°17' E 103°46'0 0.2
2018-Aug-04 09:31N 01°17' E 103°46'1 2.7
2018-Aug-04 09:00N 01°16' E 103°46'612.8
2018-Aug-04 08:30N 01°13' E 103°51'5 8.7
2018-Aug-04 07:58N 01°14' E 103°56'510.4
2018-Aug-04 07:29N 01°16' E 104°00'713.7
2018-Aug-04 06:58N 01°17' E 104°07'713.8
2018-Aug-04 06:30N 01°18' E 104°14'713.6
2018-Aug-04 05:57N 01°20' E 104°21'  

Dump ship's entire track history